x

Tanner Bank - 121nm West Of San Diego, Ca (46047) Wave Buoy

12:50am - Sat 18th Nov 2017 All times are PST. -8 hours from GMT.

  • Sig Wave height 5.9ft
  • Swell Direction
  • Peak Period 12s
  • Average Period 6s
  • Wind
    13mph, 16mph gusts
  • Sea Temp 63°f
  • Air Temp 62°f
  • Sea Pressure 1019.8mb
  • Tanner Bank - 121nm West Of San Diego, Ca
  • Tanner Bank - 121nm West Of San Diego, Ca

More Historic Weather Station data

Upgrade to MSW Pro to gain access to the past 30 days of data for over 8000 Wavebouys and Weather Stations around the globe.

Join

Comparision Forecast

View Surf forecast
   
Sat 11/18 12:50am 6ft 12s 6s 13 16 mph 1019.8mb 63f 62f
Fri 11/17 11:50pm 6ft 12s 6s 13 16 mph 1019.7mb 63f 62f
10:50pm 6ft 11s 6s 13 16 mph 1019.6mb 63f 62f
9:50pm 5ft 11s 6s 13 16 mph 1019mb 63f 62f
8:50pm 5.5ft 12s 7s 13 18 mph 1018.9mb 63f 62f
7:50pm 5.5ft 13s 7s 13 16 mph 1018.5mb 63f 62f
6:50pm 5.5ft 13s 8s 11 16 mph 1018.5mb 63f 63f
5:50pm 5ft 13s 8s 9 13 mph 1018.4mb 63f 62f
4:50pm 5ft 11s 7s 4 11 mph 1018mb 63f 63f
3:50pm 5ft 12s 8s 2 9 mph 1017.8mb 64f 63f
2:50pm 6ft 12s 9s 9 13 mph 1017.9mb 64f 62f
1:50pm 6ft 12s 10s  -  mph 1018.2mb 64f 63f
12:50pm 6ft 11s 10s  -  mph 1018.3mb 64f 64f
11:50am 7ft 11s 10s  -  mph 1018.6mb 64f 64f
10:50am 6.5ft 11s 10s  -  mph 1019.2mb 63f 64f
9:50am 7ft 12s 10s  -  mph 1019.1mb 63f 63f
8:50am 6ft 12s 10s  -  mph 1018.4mb 63f 63f
7:50am 6ft 12s 10s 2 9 mph 1017.7mb 63f 64f
6:50am 6ft 12s 10s 2 9 mph 1016.9mb 63f 63f
5:50am 6ft 12s 10s  -  9 mph 1016.7mb 63f 63f
4:50am 5.5ft 12s 11s  -  9 mph 1016.7mb 63f 63f
3:50am 6ft 12s 11s  -  mph 1015.7mb 63f 63f
2:50am 5.5ft 13s 10s  -  mph 1015.7mb 63f 63f
1:50am 5.5ft 12s 10s  -  mph 1015.5mb 63f 63f
12:50am 5.5ft 13s 10s  -  mph 1015.6mb 63f 63f
Thu 11/16 11:50pm 6ft 13s 10s  -  mph 1015.8mb 63f 63f
10:50pm 6ft 13s 10s  -  mph 1015.6mb 63f 63f
9:50pm 6.5ft 11s 10s  -  mph 1015.6mb 63f 63f
8:50pm 6ft 12s 10s  -  mph 1015.3mb 63f 63f
7:50pm 7ft 12s 10s  -  mph 1015.6mb 63f 63f
6:50pm 6ft 12s 10s  -  mph 1015.1mb 63f 63f
5:50pm 6ft 12s 10s  -  mph 1014.9mb 64f 63f
4:50pm 6ft 13s 9s  -  11 mph 1014.9mb 64f 63f
3:50pm 5ft 11s 9s  -  mph 1014.5mb 64f 63f
2:50pm 4.5ft 12s 8s 4 11 mph 1014.2mb 64f 64f
1:50pm 5ft 11s 9s 2 9 mph 1014.4mb 64f 64f
12:50pm 4.5ft 11s 8s  -  mph 1014.6mb 64f 64f
11:50am 5ft 12s 8s  -  mph 1015mb 64f 64f
10:50am 5ft 11s 9s  -  mph 1015.3mb 64f 64f
9:50am 5ft 12s 8s  -  mph 1015.6mb 63f 63f
8:50am 5.5ft 11s 9s  -  mph 1015.4mb 63f 63f
7:50am 5ft 12s 8s  -  mph 1014.9mb 63f 63f
6:50am 4.5ft 11s 8s  -  mph 1014.4mb 63f 63f
5:50am 5ft 11s 9s  -  mph 1014mb 63f 63f
4:50am 5ft 11s 8s  -  mph 1013.7mb 63f 63f
3:50am 4.5ft 11s 8s  -  mph 1013.8mb 63f 63f
2:50am 5.5ft 11s 8s  -  mph 1013.9mb 63f 63f
1:50am 5ft 11s 8s  -  mph 1014.1mb 63f 63f
12:50am 6ft 11s 8s  -  mph 1014.3mb 63f 64f
Wed 11/15 11:50pm 7ft 11s 8s  -  mph 1014.9mb 63f 64f
10:50pm 7ft 11s 8s  -  mph 1015.1mb 63f 64f
9:50pm 8ft 11s 8s  -  mph 1015.3mb 63f 64f
8:50pm 7ft 11s 8s  -  mph 1015.3mb 63f 64f
7:50pm 6.5ft 11s 8s 7 11 mph 1015.1mb 63f 64f
6:50pm 7.5ft 12s 8s  -  mph 1015mb 63f 64f
5:50pm 7ft 12s 8s 9 11 mph 1014.6mb 63f 64f
4:50pm 6ft 11s 7s 13 16 mph 1014.6mb 63f 63f
3:50pm 7ft 12s 8s 13 16 mph 1014.4mb 63f 63f
2:50pm 7.5ft 12s 8s 11 16 mph 1014.1mb 63f 63f
1:50pm 7.5ft 12s 8s 7 9 mph 1014.4mb 63f 63f
12:50pm 8.5ft 13s 9s 11 13 mph 1014.3mb 63f 63f
11:50am 9ft 13s 9s 11 13 mph 1015.1mb 63f 63f
10:50am 8ft 13s 8s 4 11 mph 1016mb 63f 63f
9:50am 9ft 11s 8s 11 16 mph 1015.9mb 63f 63f
8:50am 8ft 11s 8s  -  mph 1016.1mb 63f 63f
7:50am 8.5ft 11s 8s 2 9 mph 1015.6mb 63f 63f
6:50am 8.5ft 13s 8s  -  mph 1015.3mb 63f 63f
5:50am 8ft 14s 8s 2 9 mph 1014.8mb 63f 63f
4:50am 7ft 11s 7s 16 18 mph 1014.3mb 63f 63f
3:50am 9ft 11s 8s 16 20 mph 1014.3mb 63f 63f
2:50am 7.5ft 12s 7s 16 20 mph 1014.6mb 63f 63f
1:50am 7ft 12s 7s 16 20 mph 1015mb 63f 63f
12:50am 7ft 12s 7s 16 18 mph 1015.5mb 63f 64f
Tue 11/14 11:50pm 8.5ft 11s 8s 16 20 mph 1015.9mb 63f 64f
10:50pm 8.5ft 11s 7s 16 20 mph 1016.4mb 63f 64f
9:50pm 8ft 11s 7s 13 18 mph 1016.7mb 63f 64f
8:50pm 8ft 11s 7s 13 16 mph 1016.9mb 63f 64f
7:50pm 8ft 12s 7s 13 20 mph 1016.7mb 63f 64f
6:50pm 8ft 12s 7s 13 16 mph 1016.7mb 63f 64f
5:50pm 8.5ft 12s 8s 13 16 mph 1016.4mb 63f 64f
4:50pm 8ft 11s 7s 13 18 mph 1016.5mb 63f 64f
3:50pm 7ft 11s 7s 16 20 mph 1016.2mb 63f 63f
2:50pm 7ft 12s 7s 16 18 mph 1016.4mb 63f 63f
1:50pm 7.5ft 12s 7s 16 20 mph 1017.2mb 63f 63f
12:50pm 7ft 7s 6s 16 18 mph 1017.6mb 63f 63f
11:50am 7ft 7s 6s 16 20 mph 1018.2mb 63f 63f
10:50am 7ft 7s 6s 16 18 mph 1019.2mb 63f 63f